sensor_id;sensor_type;location;lat;lon;timestamp;P1;durP1;ratioP1;P2;durP2;ratioP2
76495;SDS011;65329;52.544;4.662;2023-03-20T00:02:07;6.53;;;2.40;;
76495;SDS011;65329;52.544;4.662;2023-03-20T00:04:42;13.25;;;3.92;;
76495;SDS011;65329;52.544;4.662;2023-03-20T00:07:09;8.82;;;2.17;;
76495;SDS011;65329;52.544;4.662;2023-03-20T00:09:38;5.88;;;1.98;;
76495;SDS011;65329;52.544;4.662;2023-03-20T00:12:05;6.22;;;2.35;;
76495;SDS011;65329;52.544;4.662;2023-03-20T00:14:34;4.22;;;1.73;;
76495;SDS011;65329;52.544;4.662;2023-03-20T00:17:04;4.75;;;2.17;;
76495;SDS011;65329;52.544;4.662;2023-03-20T00:19:36;6.65;;;1.90;;
76495;SDS011;65329;52.544;4.662;2023-03-20T00:22:04;5.07;;;2.15;;
76495;SDS011;65329;52.544;4.662;2023-03-20T00:24:31;5.63;;;2.15;;
76495;SDS011;65329;52.544;4.662;2023-03-20T00:26:58;9.25;;;2.60;;
76495;SDS011;65329;52.544;4.662;2023-03-20T00:29:26;6.93;;;2.30;;
76495;SDS011;65329;52.544;4.662;2023-03-20T00:31:56;4.88;;;2.30;;
76495;SDS011;65329;52.544;4.662;2023-03-20T00:34:25;7.75;;;2.83;;
76495;SDS011;65329;52.544;4.662;2023-03-20T00:36:55;5.13;;;2.92;;
76495;SDS011;65329;52.544;4.662;2023-03-20T00:39:22;11.32;;;2.35;;
76495;SDS011;65329;52.544;4.662;2023-03-20T00:41:53;5.13;;;2.10;;
76495;SDS011;65329;52.544;4.662;2023-03-20T00:44:36;7.63;;;2.55;;
76495;SDS011;65329;52.544;4.662;2023-03-20T00:47:12;6.88;;;2.40;;
76495;SDS011;65329;52.544;4.662;2023-03-20T00:49:45;7.13;;;2.53;;
76495;SDS011;65329;52.544;4.662;2023-03-20T00:52:18;7.90;;;2.30;;
76495;SDS011;65329;52.544;4.662;2023-03-20T00:54:49;7.18;;;2.33;;
76495;SDS011;65329;52.544;4.662;2023-03-20T00:57:27;9.20;;;2.88;;
76495;SDS011;65329;52.544;4.662;2023-03-20T00:59:57;8.85;;;1.98;;
76495;SDS011;65329;52.544;4.662;2023-03-20T01:02:28;8.98;;;2.50;;
76495;SDS011;65329;52.544;4.662;2023-03-20T01:04:58;8.48;;;2.58;;
76495;SDS011;65329;52.544;4.662;2023-03-20T01:07:25;5.25;;;2.15;;
76495;SDS011;65329;52.544;4.662;2023-03-20T01:09:53;6.18;;;2.10;;
76495;SDS011;65329;52.544;4.662;2023-03-20T01:12:20;4.55;;;1.98;;
76495;SDS011;65329;52.544;4.662;2023-03-20T01:14:50;4.03;;;1.77;;
76495;SDS011;65329;52.544;4.662;2023-03-20T01:17:20;4.43;;;1.98;;
76495;SDS011;65329;52.544;4.662;2023-03-20T01:19:49;5.50;;;1.60;;
76495;SDS011;65329;52.544;4.662;2023-03-20T01:22:17;5.65;;;1.73;;
76495;SDS011;65329;52.544;4.662;2023-03-20T01:24:44;6.13;;;1.92;;
76495;SDS011;65329;52.544;4.662;2023-03-20T01:27:12;6.47;;;2.03;;
76495;SDS011;65329;52.544;4.662;2023-03-20T01:29:46;8.18;;;1.33;;
76495;SDS011;65329;52.544;4.662;2023-03-20T01:32:14;4.85;;;1.70;;
76495;SDS011;65329;52.544;4.662;2023-03-20T01:34:45;6.63;;;1.85;;
76495;SDS011;65329;52.544;4.662;2023-03-20T01:37:16;7.43;;;1.73;;
76495;SDS011;65329;52.544;4.662;2023-03-20T01:39:44;11.23;;;2.65;;
76495;SDS011;65329;52.544;4.662;2023-03-20T01:42:13;6.40;;;1.90;;
76495;SDS011;65329;52.544;4.662;2023-03-20T01:44:46;8.70;;;2.20;;
76495;SDS011;65329;52.544;4.662;2023-03-20T01:47:18;6.00;;;1.83;;
76495;SDS011;65329;52.544;4.662;2023-03-20T01:52:38;4.78;;;1.90;;
76495;SDS011;65329;52.544;4.662;2023-03-20T01:55:07;6.75;;;1.63;;
76495;SDS011;65329;52.544;4.662;2023-03-20T01:57:34;7.15;;;1.77;;
76495;SDS011;65329;52.544;4.662;2023-03-20T02:00:04;7.88;;;1.90;;
76495;SDS011;65329;52.544;4.662;2023-03-20T02:02:43;5.20;;;1.63;;
76495;SDS011;65329;52.544;4.662;2023-03-20T02:05:30;9.02;;;1.60;;
76495;SDS011;65329;52.544;4.662;2023-03-20T02:08:21;6.80;;;1.92;;
76495;SDS011;65329;52.544;4.662;2023-03-20T02:11:01;10.95;;;1.85;;
76495;SDS011;65329;52.544;4.662;2023-03-20T02:13:31;12.15;;;1.92;;
76495;SDS011;65329;52.544;4.662;2023-03-20T02:16:04;10.88;;;1.88;;
76495;SDS011;65329;52.544;4.662;2023-03-20T02:18:46;6.82;;;1.60;;
76495;SDS011;65329;52.544;4.662;2023-03-20T02:32:26;4.57;;;1.80;;
76495;SDS011;65329;52.544;4.662;2023-03-20T02:38:55;4.13;;;1.83;;
76495;SDS011;65329;52.544;4.662;2023-03-20T02:51:40;5.10;;;1.75;;
76495;SDS011;65329;52.544;4.662;2023-03-20T02:54:22;5.82;;;2.17;;
76495;SDS011;65329;52.544;4.662;2023-03-20T02:57:01;5.60;;;2.17;;
76495;SDS011;65329;52.544;4.662;2023-03-20T02:59:46;6.93;;;2.50;;
76495;SDS011;65329;52.544;4.662;2023-03-20T03:02:21;10.55;;;3.63;;
76495;SDS011;65329;52.544;4.662;2023-03-20T03:05:02;8.48;;;2.95;;
76495;SDS011;65329;52.544;4.662;2023-03-20T03:07:34;7.68;;;3.00;;
76495;SDS011;65329;52.544;4.662;2023-03-20T03:10:07;6.28;;;2.92;;
76495;SDS011;65329;52.544;4.662;2023-03-20T03:12:43;10.55;;;4.18;;
76495;SDS011;65329;52.544;4.662;2023-03-20T03:18:02;12.77;;;4.65;;
76495;SDS011;65329;52.544;4.662;2023-03-20T03:20:34;12.18;;;4.63;;
76495;SDS011;65329;52.544;4.662;2023-03-20T03:23:04;8.80;;;4.70;;
76495;SDS011;65329;52.544;4.662;2023-03-20T03:25:37;10.55;;;4.80;;
76495;SDS011;65329;52.544;4.662;2023-03-20T03:28:42;14.77;;;5.20;;
76495;SDS011;65329;52.544;4.662;2023-03-20T03:31:05;13.98;;;5.65;;
76495;SDS011;65329;52.544;4.662;2023-03-20T03:33:35;16.45;;;5.80;;
76495;SDS011;65329;52.544;4.662;2023-03-20T03:49:47;17.05;;;7.85;;
76495;SDS011;65329;52.544;4.662;2023-03-20T03:52:21;21.67;;;8.13;;
76495;SDS011;65329;52.544;4.662;2023-03-20T03:57:45;17.27;;;6.93;;
76495;SDS011;65329;52.544;4.662;2023-03-20T04:00:19;17.50;;;7.03;;
76495;SDS011;65329;52.544;4.662;2023-03-20T04:02:50;16.88;;;5.68;;
76495;SDS011;65329;52.544;4.662;2023-03-20T04:05:26;17.55;;;5.95;;
76495;SDS011;65329;52.544;4.662;2023-03-20T04:08:02;13.23;;;5.78;;
76495;SDS011;65329;52.544;4.662;2023-03-20T04:10:30;19.50;;;6.07;;
76495;SDS011;65329;52.544;4.662;2023-03-20T04:12:59;14.82;;;5.93;;
76495;SDS011;65329;52.544;4.662;2023-03-20T04:15:26;14.23;;;6.40;;
76495;SDS011;65329;52.544;4.662;2023-03-20T04:17:54;11.13;;;5.50;;
76495;SDS011;65329;52.544;4.662;2023-03-20T04:20:22;11.45;;;5.53;;
76495;SDS011;65329;52.544;4.662;2023-03-20T04:22:49;14.18;;;5.55;;
76495;SDS011;65329;52.544;4.662;2023-03-20T04:25:20;11.23;;;6.00;;
76495;SDS011;65329;52.544;4.662;2023-03-20T04:27:52;12.35;;;5.35;;
76495;SDS011;65329;52.544;4.662;2023-03-20T04:30:30;13.95;;;6.95;;
76495;SDS011;65329;52.544;4.662;2023-03-20T04:33:24;13.43;;;5.95;;
76495;SDS011;65329;52.544;4.662;2023-03-20T04:36:10;17.20;;;7.68;;
76495;SDS011;65329;52.544;4.662;2023-03-20T04:38:38;15.88;;;7.53;;
76495;SDS011;65329;52.544;4.662;2023-03-20T04:41:06;19.65;;;7.35;;
76495;SDS011;65329;52.544;4.662;2023-03-20T04:43:34;18.05;;;7.38;;
76495;SDS011;65329;52.544;4.662;2023-03-20T04:46:02;17.33;;;7.68;;
76495;SDS011;65329;52.544;4.662;2023-03-20T04:48:29;14.88;;;6.47;;
76495;SDS011;65329;52.544;4.662;2023-03-20T04:50:57;16.23;;;6.32;;
76495;SDS011;65329;52.544;4.662;2023-03-20T04:53:37;13.55;;;5.43;;
76495;SDS011;65329;52.544;4.662;2023-03-20T04:56:04;11.15;;;5.88;;
76495;SDS011;65329;52.544;4.662;2023-03-20T04:58:33;14.73;;;6.70;;
76495;SDS011;65329;52.544;4.662;2023-03-20T05:01:02;15.43;;;6.80;;
76495;SDS011;65329;52.544;4.662;2023-03-20T05:03:30;12.23;;;5.97;;
76495;SDS011;65329;52.544;4.662;2023-03-20T05:05:58;11.05;;;5.97;;
76495;SDS011;65329;52.544;4.662;2023-03-20T05:08:26;14.77;;;7.05;;
76495;SDS011;65329;52.544;4.662;2023-03-20T05:10:58;10.13;;;5.68;;
76495;SDS011;65329;52.544;4.662;2023-03-20T05:13:43;15.70;;;5.90;;
76495;SDS011;65329;52.544;4.662;2023-03-20T05:16:30;12.93;;;5.03;;
76495;SDS011;65329;52.544;4.662;2023-03-20T05:19:17;13.70;;;6.18;;
76495;SDS011;65329;52.544;4.662;2023-03-20T05:21:55;15.30;;;5.80;;
76495;SDS011;65329;52.544;4.662;2023-03-20T05:24:51;13.05;;;5.65;;
76495;SDS011;65329;52.544;4.662;2023-03-20T05:27:37;15.75;;;4.72;;
76495;SDS011;65329;52.544;4.662;2023-03-20T05:30:22;11.73;;;4.80;;
76495;SDS011;65329;52.544;4.662;2023-03-20T05:32:55;10.63;;;4.75;;
76495;SDS011;65329;52.544;4.662;2023-03-20T05:35:25;17.00;;;6.13;;
76495;SDS011;65329;52.544;4.662;2023-03-20T05:38:10;9.93;;;4.75;;
76495;SDS011;65329;52.544;4.662;2023-03-20T05:40:59;11.65;;;5.20;;
76495;SDS011;65329;52.544;4.662;2023-03-20T05:43:37;12.88;;;5.38;;
76495;SDS011;65329;52.544;4.662;2023-03-20T05:46:24;12.00;;;5.40;;
76495;SDS011;65329;52.544;4.662;2023-03-20T05:49:15;16.55;;;5.40;;
76495;SDS011;65329;52.544;4.662;2023-03-20T05:52:01;19.35;;;6.07;;
76495;SDS011;65329;52.544;4.662;2023-03-20T05:54:57;15.18;;;5.88;;
76495;SDS011;65329;52.544;4.662;2023-03-20T05:57:44;14.68;;;5.90;;
76495;SDS011;65329;52.544;4.662;2023-03-20T06:00:38;16.52;;;5.82;;
76495;SDS011;65329;52.544;4.662;2023-03-20T06:03:33;15.68;;;6.90;;
76495;SDS011;65329;52.544;4.662;2023-03-20T06:06:07;15.88;;;6.13;;
76495;SDS011;65329;52.544;4.662;2023-03-20T06:08:35;16.13;;;5.82;;
76495;SDS011;65329;52.544;4.662;2023-03-20T06:11:02;13.13;;;5.75;;
76495;SDS011;65329;52.544;4.662;2023-03-20T06:13:34;14.48;;;5.60;;
76495;SDS011;65329;52.544;4.662;2023-03-20T06:16:04;15.88;;;6.22;;
76495;SDS011;65329;52.544;4.662;2023-03-20T06:18:31;12.65;;;5.75;;
76495;SDS011;65329;52.544;4.662;2023-03-20T06:20:58;17.55;;;6.55;;
76495;SDS011;65329;52.544;4.662;2023-03-20T06:23:29;12.68;;;5.72;;
76495;SDS011;65329;52.544;4.662;2023-03-20T06:25:58;13.73;;;5.30;;
76495;SDS011;65329;52.544;4.662;2023-03-20T06:28:26;15.55;;;6.45;;
76495;SDS011;65329;52.544;4.662;2023-03-20T06:31:00;18.63;;;6.80;;
76495;SDS011;65329;52.544;4.662;2023-03-20T06:33:28;19.75;;;6.45;;
76495;SDS011;65329;52.544;4.662;2023-03-20T06:35:59;14.48;;;5.20;;
76495;SDS011;65329;52.544;4.662;2023-03-20T06:38:30;19.60;;;6.30;;
76495;SDS011;65329;52.544;4.662;2023-03-20T06:41:02;15.63;;;6.47;;
76495;SDS011;65329;52.544;4.662;2023-03-20T06:43:30;14.18;;;5.57;;
76495;SDS011;65329;52.544;4.662;2023-03-20T06:45:58;14.50;;;5.65;;
76495;SDS011;65329;52.544;4.662;2023-03-20T06:48:27;22.13;;;6.72;;
76495;SDS011;65329;52.544;4.662;2023-03-20T06:50:55;17.17;;;6.72;;
76495;SDS011;65329;52.544;4.662;2023-03-20T06:53:29;11.95;;;4.50;;
76495;SDS011;65329;52.544;4.662;2023-03-20T06:56:04;8.38;;;4.18;;
76495;SDS011;65329;52.544;4.662;2023-03-20T06:58:31;10.32;;;3.97;;
76495;SDS011;65329;52.544;4.662;2023-03-20T07:00:59;12.18;;;4.35;;
76495;SDS011;65329;52.544;4.662;2023-03-20T07:03:26;10.90;;;3.95;;
76495;SDS011;65329;52.544;4.662;2023-03-20T07:05:56;11.30;;;4.15;;
76495;SDS011;65329;52.544;4.662;2023-03-20T07:08:23;9.57;;;3.72;;
76495;SDS011;65329;52.544;4.662;2023-03-20T07:10:50;14.95;;;4.47;;
76495;SDS011;65329;52.544;4.662;2023-03-20T07:13:17;14.07;;;4.20;;
76495;SDS011;65329;52.544;4.662;2023-03-20T07:15:46;16.88;;;4.30;;
76495;SDS011;65329;52.544;4.662;2023-03-20T07:18:35;13.93;;;4.53;;
76495;SDS011;65329;52.544;4.662;2023-03-20T07:21:03;10.88;;;4.32;;
76495;SDS011;65329;52.544;4.662;2023-03-20T07:23:33;15.30;;;4.57;;
76495;SDS011;65329;52.544;4.662;2023-03-20T07:26:01;17.23;;;4.35;;
76495;SDS011;65329;52.544;4.662;2023-03-20T07:28:29;11.23;;;3.35;;
76495;SDS011;65329;52.544;4.662;2023-03-20T07:31:11;14.65;;;3.55;;
76495;SDS011;65329;52.544;4.662;2023-03-20T07:33:48;10.63;;;3.13;;
76495;SDS011;65329;52.544;4.662;2023-03-20T07:36:15;11.02;;;3.08;;
76495;SDS011;65329;52.544;4.662;2023-03-20T07:38:44;13.48;;;3.58;;
76495;SDS011;65329;52.544;4.662;2023-03-20T07:41:13;11.93;;;3.65;;
76495;SDS011;65329;52.544;4.662;2023-03-20T07:43:45;11.93;;;3.17;;
76495;SDS011;65329;52.544;4.662;2023-03-20T07:46:51;12.32;;;3.70;;
76495;SDS011;65329;52.544;4.662;2023-03-20T07:49:21;12.52;;;3.25;;
76495;SDS011;65329;52.544;4.662;2023-03-20T07:51:48;15.38;;;3.53;;
76495;SDS011;65329;52.544;4.662;2023-03-20T07:54:16;9.80;;;3.28;;
76495;SDS011;65329;52.544;4.662;2023-03-20T07:56:46;11.40;;;3.10;;
76495;SDS011;65329;52.544;4.662;2023-03-20T07:59:13;8.65;;;2.50;;
76495;SDS011;65329;52.544;4.662;2023-03-20T08:01:41;13.93;;;3.33;;
76495;SDS011;65329;52.544;4.662;2023-03-20T08:04:10;11.73;;;2.50;;
76495;SDS011;65329;52.544;4.662;2023-03-20T08:06:38;12.65;;;2.72;;
76495;SDS011;65329;52.544;4.662;2023-03-20T08:09:07;10.45;;;2.42;;
76495;SDS011;65329;52.544;4.662;2023-03-20T08:11:36;10.23;;;2.50;;
76495;SDS011;65329;52.544;4.662;2023-03-20T08:14:08;12.80;;;2.80;;
76495;SDS011;65329;52.544;4.662;2023-03-20T08:16:35;6.13;;;1.90;;
76495;SDS011;65329;52.544;4.662;2023-03-20T08:19:02;14.75;;;3.10;;
76495;SDS011;65329;52.544;4.662;2023-03-20T08:21:31;14.18;;;3.22;;
76495;SDS011;65329;52.544;4.662;2023-03-20T08:23:58;13.60;;;2.55;;
76495;SDS011;65329;52.544;4.662;2023-03-20T08:26:25;10.38;;;2.60;;
76495;SDS011;65329;52.544;4.662;2023-03-20T08:28:52;11.75;;;3.50;;
76495;SDS011;65329;52.544;4.662;2023-03-20T08:31:19;13.07;;;3.92;;
76495;SDS011;65329;52.544;4.662;2023-03-20T08:33:46;13.88;;;2.80;;
76495;SDS011;65329;52.544;4.662;2023-03-20T08:36:13;14.85;;;2.85;;
76495;SDS011;65329;52.544;4.662;2023-03-20T08:38:41;6.60;;;2.28;;
76495;SDS011;65329;52.544;4.662;2023-03-20T08:41:10;12.10;;;4.13;;
76495;SDS011;65329;52.544;4.662;2023-03-20T08:43:38;16.65;;;3.13;;
76495;SDS011;65329;52.544;4.662;2023-03-20T08:46:06;17.85;;;3.38;;
76495;SDS011;65329;52.544;4.662;2023-03-20T08:48:34;18.90;;;3.53;;
76495;SDS011;65329;52.544;4.662;2023-03-20T08:51:04;11.00;;;2.35;;
76495;SDS011;65329;52.544;4.662;2023-03-20T08:53:31;13.70;;;3.30;;
76495;SDS011;65329;52.544;4.662;2023-03-20T08:55:58;14.60;;;3.47;;
76495;SDS011;65329;52.544;4.662;2023-03-20T08:58:26;11.82;;;3.15;;
76495;SDS011;65329;52.544;4.662;2023-03-20T09:01:08;14.80;;;3.40;;
76495;SDS011;65329;52.544;4.662;2023-03-20T09:03:42;11.98;;;3.50;;
76495;SDS011;65329;52.544;4.662;2023-03-20T09:06:09;8.75;;;3.47;;
76495;SDS011;65329;52.544;4.662;2023-03-20T09:08:43;12.07;;;2.95;;
76495;SDS011;65329;52.544;4.662;2023-03-20T09:11:11;21.52;;;4.32;;
76495;SDS011;65329;52.544;4.662;2023-03-20T09:13:39;19.05;;;3.55;;
76495;SDS011;65329;52.544;4.662;2023-03-20T09:16:06;12.82;;;4.07;;
76495;SDS011;65329;52.544;4.662;2023-03-20T09:18:35;15.02;;;2.72;;
76495;SDS011;65329;52.544;4.662;2023-03-20T09:21:02;20.33;;;4.47;;
76495;SDS011;65329;52.544;4.662;2023-03-20T09:23:29;10.77;;;3.78;;
76495;SDS011;65329;52.544;4.662;2023-03-20T09:25:57;9.18;;;3.15;;
76495;SDS011;65329;52.544;4.662;2023-03-20T09:28:25;18.38;;;4.32;;
76495;SDS011;65329;52.544;4.662;2023-03-20T09:30:56;13.90;;;4.90;;
76495;SDS011;65329;52.544;4.662;2023-03-20T09:33:24;15.35;;;3.90;;
76495;SDS011;65329;52.544;4.662;2023-03-20T09:35:51;12.65;;;4.75;;
76495;SDS011;65329;52.544;4.662;2023-03-20T09:38:19;12.95;;;4.57;;
76495;SDS011;65329;52.544;4.662;2023-03-20T09:43:34;20.90;;;5.88;;
76495;SDS011;65329;52.544;4.662;2023-03-20T09:46:25;18.60;;;6.22;;
76495;SDS011;65329;52.544;4.662;2023-03-20T09:51:49;12.82;;;4.43;;
76495;SDS011;65329;52.544;4.662;2023-03-20T09:54:23;13.50;;;5.55;;
76495;SDS011;65329;52.544;4.662;2023-03-20T09:56:54;12.27;;;5.15;;
76495;SDS011;65329;52.544;4.662;2023-03-20T09:59:24;12.48;;;4.65;;
76495;SDS011;65329;52.544;4.662;2023-03-20T10:01:54;13.07;;;4.75;;
76495;SDS011;65329;52.544;4.662;2023-03-20T10:06:58;15.30;;;5.53;;
76495;SDS011;65329;52.544;4.662;2023-03-20T10:09:29;11.63;;;5.70;;
76495;SDS011;65329;52.544;4.662;2023-03-20T10:14:39;8.25;;;4.20;;
76495;SDS011;65329;52.544;4.662;2023-03-20T10:20:25;15.93;;;6.85;;
76495;SDS011;65329;52.544;4.662;2023-03-20T10:23:02;19.38;;;6.65;;
76495;SDS011;65329;52.544;4.662;2023-03-20T10:25:34;16.13;;;6.35;;
76495;SDS011;65329;52.544;4.662;2023-03-20T10:28:13;21.33;;;7.43;;
76495;SDS011;65329;52.544;4.662;2023-03-20T10:30:49;13.80;;;6.78;;
76495;SDS011;65329;52.544;4.662;2023-03-20T10:41:53;15.23;;;8.88;;
76495;SDS011;65329;52.544;4.662;2023-03-20T10:47:08;14.98;;;8.55;;
76495;SDS011;65329;52.544;4.662;2023-03-20T10:49:39;14.43;;;8.73;;
76495;SDS011;65329;52.544;4.662;2023-03-20T10:52:15;15.88;;;8.57;;
76495;SDS011;65329;52.544;4.662;2023-03-20T10:54:48;15.80;;;7.15;;
76495;SDS011;65329;52.544;4.662;2023-03-20T10:57:23;14.45;;;8.68;;
76495;SDS011;65329;52.544;4.662;2023-03-20T10:59:55;12.65;;;7.63;;
76495;SDS011;65329;52.544;4.662;2023-03-20T11:02:27;21.27;;;9.60;;
76495;SDS011;65329;52.544;4.662;2023-03-20T11:04:55;16.30;;;10.00;;
76495;SDS011;65329;52.544;4.662;2023-03-20T11:07:32;24.58;;;10.77;;
76495;SDS011;65329;52.544;4.662;2023-03-20T11:12:37;15.63;;;9.25;;
76495;SDS011;65329;52.544;4.662;2023-03-20T11:15:23;18.85;;;10.23;;
76495;SDS011;65329;52.544;4.662;2023-03-20T11:18:00;13.25;;;8.07;;
76495;SDS011;65329;52.544;4.662;2023-03-20T11:20:33;15.63;;;9.85;;
76495;SDS011;65329;52.544;4.662;2023-03-20T11:23:04;16.42;;;8.70;;
76495;SDS011;65329;52.544;4.662;2023-03-20T11:25:57;14.00;;;8.60;;
76495;SDS011;65329;52.544;4.662;2023-03-20T11:31:39;12.55;;;7.90;;
76495;SDS011;65329;52.544;4.662;2023-03-20T11:34:25;15.73;;;10.90;;
76495;SDS011;65329;52.544;4.662;2023-03-20T11:37:00;16.67;;;8.85;;
76495;SDS011;65329;52.544;4.662;2023-03-20T11:39:37;18.38;;;9.75;;
76495;SDS011;65329;52.544;4.662;2023-03-20T11:42:23;19.60;;;11.90;;
76495;SDS011;65329;52.544;4.662;2023-03-20T11:45:13;17.58;;;9.52;;
76495;SDS011;65329;52.544;4.662;2023-03-20T11:47:42;15.18;;;8.43;;
76495;SDS011;65329;52.544;4.662;2023-03-20T11:56:03;15.75;;;9.57;;
76495;SDS011;65329;52.544;4.662;2023-03-20T11:58:34;19.00;;;9.98;;
76495;SDS011;65329;52.544;4.662;2023-03-20T12:01:06;16.92;;;8.90;;
76495;SDS011;65329;52.544;4.662;2023-03-20T12:06:41;15.23;;;9.32;;
76495;SDS011;65329;52.544;4.662;2023-03-20T12:10:02;15.82;;;8.43;;
76495;SDS011;65329;52.544;4.662;2023-03-20T12:17:56;12.65;;;8.25;;
76495;SDS011;65329;52.544;4.662;2023-03-20T12:20:36;20.15;;;9.20;;
76495;SDS011;65329;52.544;4.662;2023-03-20T12:33:51;10.50;;;5.35;;
76495;SDS011;65329;52.544;4.662;2023-03-20T12:36:35;8.15;;;3.60;;
76495;SDS011;65329;52.544;4.662;2023-03-20T12:39:06;8.13;;;5.53;;
76495;SDS011;65329;52.544;4.662;2023-03-20T12:47:52;8.77;;;4.05;;
76495;SDS011;65329;52.544;4.662;2023-03-20T12:58:43;7.55;;;3.92;;
76495;SDS011;65329;52.544;4.662;2023-03-20T13:01:21;8.63;;;5.43;;
76495;SDS011;65329;52.544;4.662;2023-03-20T13:06:59;8.73;;;5.22;;
76495;SDS011;65329;52.544;4.662;2023-03-20T13:12:20;7.63;;;4.13;;
76495;SDS011;65329;52.544;4.662;2023-03-20T13:20:38;8.68;;;5.20;;
76495;SDS011;65329;52.544;4.662;2023-03-20T13:23:29;6.50;;;4.03;;
76495;SDS011;65329;52.544;4.662;2023-03-20T13:26:10;10.07;;;4.35;;
76495;SDS011;65329;52.544;4.662;2023-03-20T13:31:56;5.97;;;4.25;;
76495;SDS011;65329;52.544;4.662;2023-03-20T13:37:27;2.90;;;2.00;;
76495;SDS011;65329;52.544;4.662;2023-03-20T13:42:41;11.90;;;4.35;;
76495;SDS011;65329;52.544;4.662;2023-03-20T13:45:19;9.10;;;3.92;;
76495;SDS011;65329;52.544;4.662;2023-03-20T13:47:57;12.35;;;4.35;;
76495;SDS011;65329;52.544;4.662;2023-03-20T13:53:37;7.30;;;4.28;;
76495;SDS011;65329;52.544;4.662;2023-03-20T14:04:45;8.90;;;3.53;;
76495;SDS011;65329;52.544;4.662;2023-03-20T14:07:30;8.20;;;3.83;;
76495;SDS011;65329;52.544;4.662;2023-03-20T14:12:53;7.28;;;3.95;;
76495;SDS011;65329;52.544;4.662;2023-03-20T14:15:21;6.20;;;3.13;;
76495;SDS011;65329;52.544;4.662;2023-03-20T14:17:52;12.43;;;3.92;;
76495;SDS011;65329;52.544;4.662;2023-03-20T14:22:55;13.93;;;3.78;;
76495;SDS011;65329;52.544;4.662;2023-03-20T14:25:23;14.57;;;4.78;;
76495;SDS011;65329;52.544;4.662;2023-03-20T14:27:53;11.13;;;4.82;;
76495;SDS011;65329;52.544;4.662;2023-03-20T14:32:58;9.93;;;4.05;;
76495;SDS011;65329;52.544;4.662;2023-03-20T14:35:36;13.82;;;5.05;;
76495;SDS011;65329;52.544;4.662;2023-03-20T14:46:21;15.25;;;4.97;;
76495;SDS011;65329;52.544;4.662;2023-03-20T14:48:56;14.02;;;4.65;;
76495;SDS011;65329;52.544;4.662;2023-03-20T14:51:43;16.38;;;4.95;;
76495;SDS011;65329;52.544;4.662;2023-03-20T14:54:27;15.90;;;4.68;;
76495;SDS011;65329;52.544;4.662;2023-03-20T14:57:17;19.88;;;5.35;;
76495;SDS011;65329;52.544;4.662;2023-03-20T14:59:53;12.75;;;5.90;;
76495;SDS011;65329;52.544;4.662;2023-03-20T15:02:24;17.45;;;5.25;;
76495;SDS011;65329;52.544;4.662;2023-03-20T15:04:54;17.70;;;5.45;;
76495;SDS011;65329;52.544;4.662;2023-03-20T15:07:23;15.38;;;4.13;;
76495;SDS011;65329;52.544;4.662;2023-03-20T15:09:55;17.40;;;4.45;;
76495;SDS011;65329;52.544;4.662;2023-03-20T15:12:26;19.45;;;4.75;;
76495;SDS011;65329;52.544;4.662;2023-03-20T15:14:59;21.35;;;4.68;;
76495;SDS011;65329;52.544;4.662;2023-03-20T15:17:38;21.83;;;4.93;;
76495;SDS011;65329;52.544;4.662;2023-03-20T15:20:19;15.88;;;4.80;;
76495;SDS011;65329;52.544;4.662;2023-03-20T15:22:48;14.85;;;4.43;;
76495;SDS011;65329;52.544;4.662;2023-03-20T15:25:18;19.10;;;3.70;;
76495;SDS011;65329;52.544;4.662;2023-03-20T15:27:46;25.27;;;5.50;;
76495;SDS011;65329;52.544;4.662;2023-03-20T15:30:20;13.45;;;3.83;;
76495;SDS011;65329;52.544;4.662;2023-03-20T15:32:52;20.98;;;5.00;;
76495;SDS011;65329;52.544;4.662;2023-03-20T15:35:24;25.98;;;4.88;;
76495;SDS011;65329;52.544;4.662;2023-03-20T15:37:54;17.35;;;3.90;;
76495;SDS011;65329;52.544;4.662;2023-03-20T15:40:25;22.27;;;4.35;;
76495;SDS011;65329;52.544;4.662;2023-03-20T15:43:14;19.23;;;3.45;;
76495;SDS011;65329;52.544;4.662;2023-03-20T15:45:44;18.33;;;3.90;;
76495;SDS011;65329;52.544;4.662;2023-03-20T15:48:15;20.63;;;4.00;;
76495;SDS011;65329;52.544;4.662;2023-03-20T15:50:45;16.20;;;3.58;;
76495;SDS011;65329;52.544;4.662;2023-03-20T15:53:17;12.68;;;3.65;;
76495;SDS011;65329;52.544;4.662;2023-03-20T15:55:49;26.70;;;5.68;;
76495;SDS011;65329;52.544;4.662;2023-03-20T15:58:23;15.40;;;3.97;;
76495;SDS011;65329;52.544;4.662;2023-03-20T16:00:52;19.60;;;4.13;;
76495;SDS011;65329;52.544;4.662;2023-03-20T16:03:20;15.30;;;2.70;;
76495;SDS011;65329;52.544;4.662;2023-03-20T16:05:48;22.80;;;5.18;;
76495;SDS011;65329;52.544;4.662;2023-03-20T16:08:27;16.42;;;3.40;;
76495;SDS011;65329;52.544;4.662;2023-03-20T16:11:00;12.43;;;3.55;;
76495;SDS011;65329;52.544;4.662;2023-03-20T16:13:37;15.43;;;3.72;;
76495;SDS011;65329;52.544;4.662;2023-03-20T16:16:11;17.52;;;3.55;;
76495;SDS011;65329;52.544;4.662;2023-03-20T16:18:49;10.90;;;2.72;;
76495;SDS011;65329;52.544;4.662;2023-03-20T16:21:29;20.23;;;3.58;;
76495;SDS011;65329;52.544;4.662;2023-03-20T16:23:59;14.80;;;3.60;;
76495;SDS011;65329;52.544;4.662;2023-03-20T16:26:34;21.92;;;5.78;;
76495;SDS011;65329;52.544;4.662;2023-03-20T16:29:05;16.73;;;3.85;;
76495;SDS011;65329;52.544;4.662;2023-03-20T16:31:34;17.00;;;3.85;;
76495;SDS011;65329;52.544;4.662;2023-03-20T16:34:11;22.85;;;4.50;;
76495;SDS011;65329;52.544;4.662;2023-03-20T16:36:48;20.02;;;3.53;;
76495;SDS011;65329;52.544;4.662;2023-03-20T16:39:19;20.55;;;3.90;;
76495;SDS011;65329;52.544;4.662;2023-03-20T16:41:54;17.98;;;3.50;;
76495;SDS011;65329;52.544;4.662;2023-03-20T16:44:39;21.27;;;4.78;;
76495;SDS011;65329;52.544;4.662;2023-03-20T16:47:20;17.25;;;3.45;;
76495;SDS011;65329;52.544;4.662;2023-03-20T16:52:28;26.38;;;4.32;;
76495;SDS011;65329;52.544;4.662;2023-03-20T16:55:01;17.95;;;3.80;;
76495;SDS011;65329;52.544;4.662;2023-03-20T16:57:32;22.83;;;3.60;;
76495;SDS011;65329;52.544;4.662;2023-03-20T17:00:04;21.10;;;3.85;;
76495;SDS011;65329;52.544;4.662;2023-03-20T17:02:35;13.90;;;2.95;;
76495;SDS011;65329;52.544;4.662;2023-03-20T17:05:05;18.88;;;4.25;;
76495;SDS011;65329;52.544;4.662;2023-03-20T17:07:38;19.17;;;3.88;;
76495;SDS011;65329;52.544;4.662;2023-03-20T17:12:47;10.60;;;3.47;;
76495;SDS011;65329;52.544;4.662;2023-03-20T17:15:21;20.08;;;2.95;;
76495;SDS011;65329;52.544;4.662;2023-03-20T17:17:50;11.30;;;3.42;;
76495;SDS011;65329;52.544;4.662;2023-03-20T17:20:21;18.35;;;3.35;;
76495;SDS011;65329;52.544;4.662;2023-03-20T17:22:50;21.30;;;3.88;;
76495;SDS011;65329;52.544;4.662;2023-03-20T17:25:17;22.48;;;3.22;;
76495;SDS011;65329;52.544;4.662;2023-03-20T17:27:45;18.70;;;3.40;;
76495;SDS011;65329;52.544;4.662;2023-03-20T17:30:17;21.77;;;3.20;;
76495;SDS011;65329;52.544;4.662;2023-03-20T17:32:49;14.95;;;3.53;;
76495;SDS011;65329;52.544;4.662;2023-03-20T17:35:17;17.67;;;3.95;;
76495;SDS011;65329;52.544;4.662;2023-03-20T17:37:44;17.92;;;2.97;;
76495;SDS011;65329;52.544;4.662;2023-03-20T17:40:18;16.30;;;3.53;;
76495;SDS011;65329;52.544;4.662;2023-03-20T17:42:48;16.98;;;3.28;;
76495;SDS011;65329;52.544;4.662;2023-03-20T17:45:15;18.38;;;2.90;;
76495;SDS011;65329;52.544;4.662;2023-03-20T17:47:46;19.15;;;3.72;;
76495;SDS011;65329;52.544;4.662;2023-03-20T17:50:17;21.90;;;3.47;;
76495;SDS011;65329;52.544;4.662;2023-03-20T17:52:53;22.85;;;4.20;;
76495;SDS011;65329;52.544;4.662;2023-03-20T17:55:20;19.50;;;3.90;;
76495;SDS011;65329;52.544;4.662;2023-03-20T17:57:47;13.32;;;2.97;;
76495;SDS011;65329;52.544;4.662;2023-03-20T18:02:46;27.17;;;5.13;;
76495;SDS011;65329;52.544;4.662;2023-03-20T18:05:13;20.98;;;3.42;;
76495;SDS011;65329;52.544;4.662;2023-03-20T18:07:40;12.35;;;3.45;;